Maratha Paramount — V7SE4 — position and weather

sailwx.info

Track history (hours):
 
Tides and Currents Weather Stations Pressure Air Temp Water Temp Dewpoint Dewpoint Depression Visibility Wind Speed Wind Dir Waves Ship Positions

Maratha Paramount

Last reported at 2018-Jun-14 23:14 UTC. Time now 2018-Jun-18 13:34 UTC.
Position N 34°28' W 123°51'.

Length 175 m; draft 9.7 m.

Type: Cargo ship. MMSI: 538003632.

Date/timePositionNaut miles runAvg speedWind from/ knotsBaromVisibWave heightAir tempDewpointWater temp
2018-Jun-14 23:14N 34°28' W 123°51'1710.3
2018-Jun-14 21:33N 34°27' W 123°29'310.4
2018-Jun-14 21:18N 34°27' W 123°26'410.5
2018-Jun-14 20:56N 34°27' W 123°22'610.5
2018-Jun-14 20:23N 34°27' W 123°15'410.7
2018-Jun-14 19:59N 34°27' W 123°09'510.3
2018-Jun-14 19:30N 34°27' W 123°03'510.4
2018-Jun-14 19:00N 34°27' W 122°57'510.3
2018-Jun-14 18:30N 34°27' W 122°51'610.3
2018-Jun-14 17:55N 34°27' W 122°43'1310.5
2018-Jun-14 16:39N 34°26' W 122°27'310.3
2018-Jun-14 16:24N 34°26' W 122°24'610.4
2018-Jun-14 15:49N 34°27' W 122°17'710.3
2018-Jun-14 15:06N 34°27' W 122°08'110.2
2018-Jun-14 15:00N 34°27' W 122°07'610.3
2018-Jun-14 14:23N 34°27' W 121°59'410.5
2018-Jun-14 14:00N 34°27' W 121°54'610.3
2018-Jun-14 13:28N 34°27' W 121°47'510.5
2018-Jun-14 13:00N 34°26' W 121°41'510.5
2018-Jun-14 12:29N 34°27' W 121°35'510.5
2018-Jun-14 12:00N 34°27' W 121°29'610.2
2018-Jun-14 11:26N 34°27' W 121°22'510.8
2018-Jun-14 11:00N 34°27' W 121°16'610.8
2018-Jun-14 10:29N 34°27' W 121°09'511.1
2018-Jun-14 10:00N 34°27' W 121°03'610.7
2018-Jun-14 09:28N 34°27' W 120°56'511.0
2018-Jun-14 09:00N 34°26' W 120°50'611.3
2018-Jun-14 08:30N 34°24' W 120°43'611.1
2018-Jun-14 08:00N 34°23' W 120°37'610.9
2018-Jun-14 07:30N 34°21' W 120°30'611.7
2018-Jun-14 07:00N 34°20' W 120°23'612.5
2018-Jun-14 06:30N 34°18' W 120°16'612.2
2018-Jun-14 06:00N 34°16' W 120°09'611.8
2018-Jun-14 05:28N 34°15' W 120°02'611.6
2018-Jun-14 04:58N 34°13' W 119°55'611.7
2018-Jun-14 04:28N 34°11' W 119°48'612.6
2018-Jun-14 03:58N 34°10' W 119°41'612.4
2018-Jun-14 03:30N 34°08' W 119°34'612.7
2018-Jun-14 03:00N 34°07' W 119°27'712.8
2018-Jun-14 02:28N 34°05' W 119°19'612.5
2018-Jun-14 02:00N 34°03' W 119°12'612.3
2018-Jun-14 01:30N 33°60' W 119°06'712.1
2018-Jun-14 00:58N 33°56' W 118°59'612.0
2018-Jun-14 00:29N 33°53' W 118°53'611.5
2018-Jun-13 23:59N 33°51' W 118°47'610.9
2018-Jun-13 23:28N 33°48' W 118°41'511.0
2018-Jun-13 23:00N 33°45' W 118°36'610.9
2018-Jun-13 22:27N 33°43' W 118°29'510.8
2018-Jun-13 22:00N 33°40' W 118°24'510.3
2018-Jun-13 21:30N 33°38' W 118°18'5 9.5
2018-Jun-13 21:01N 33°38' W 118°13'5 9.0
2018-Jun-13 20:30N 33°43' W 118°11'2 4.2
2018-Jun-13 20:01N 33°43' W 118°14'0 0.2
2018-Jun-13 19:30N 33°43' W 118°14'0 0.2
2018-Jun-13 19:00N 33°43' W 118°14'0 0.1
2018-Jun-13 18:30N 33°43' W 118°14'0 0.0
2018-Jun-13 18:00N 33°43' W 118°14'0 0.0
2018-Jun-13 17:30N 33°43' W 118°14'0 0.0
2018-Jun-13 17:00N 33°43' W 118°14'0 0.0
2018-Jun-13 16:30N 33°43' W 118°14'0 0.0
2018-Jun-13 16:00N 33°43' W 118°14'0 0.1
2018-Jun-13 15:30N 33°43' W 118°14'0 0.0
2018-Jun-13 15:00N 33°43' W 118°14'0 0.1
2018-Jun-13 14:30N 33°43' W 118°14'0 0.0
2018-Jun-13 14:00N 33°43' W 118°14'0 0.1
2018-Jun-13 13:30N 33°43' W 118°14'0 0.0
2018-Jun-13 13:00N 33°43' W 118°14'0 0.0
2018-Jun-13 12:30N 33°43' W 118°14'0 0.0
2018-Jun-13 12:00N 33°43' W 118°14'0 0.0
2018-Jun-13 11:27N 33°43' W 118°14'0 0.0
2018-Jun-13 11:00N 33°43' W 118°14'0 0.0
2018-Jun-13 10:30N 33°43' W 118°14'0 0.0
2018-Jun-13 10:00N 33°43' W 118°14'0 0.0
2018-Jun-13 09:30N 33°43' W 118°14'0 0.0
2018-Jun-13 09:00N 33°43' W 118°14'0 0.0
2018-Jun-13 08:27N 33°43' W 118°14'0 0.0
2018-Jun-13 08:00N 33°43' W 118°14'0 0.0
2018-Jun-13 07:30N 33°43' W 118°14'0 0.1
2018-Jun-13 06:51N 33°43' W 118°14'0 0.0
2018-Jun-13 06:24N 33°43' W 118°14'0 0.0
2018-Jun-13 06:00N 33°43' W 118°14'0 0.0
2018-Jun-13 05:30N 33°43' W 118°14'0 0.0
2018-Jun-13 05:00N 33°43' W 118°14'0 0.0
2018-Jun-13 04:30N 33°43' W 118°14'0 0.0
2018-Jun-13 04:00N 33°43' W 118°14'0 0.0
2018-Jun-13 03:30N 33°43' W 118°14'0 0.1
2018-Jun-13 03:00N 33°43' W 118°14'1 2.2
2018-Jun-13 02:30N 33°44' W 118°12'4 7.4
2018-Jun-13 02:00N 33°40' W 118°11'4 7.9
2018-Jun-13 01:30N 33°36' W 118°10'5 9.7
2018-Jun-13 01:00N 33°32' W 118°08'510.0
2018-Jun-13 00:30N 33°27' W 118°06'4 7.3
2018-Jun-12 23:59N 33°23' W 118°04'510.4
2018-Jun-12 23:30N 33°19' W 118°02'612.2
2018-Jun-12 23:00N 33°13' W 117°60'712.8
2018-Jun-12 22:29N 33°06' W 117°57'613.0
2018-Jun-12 22:00N 33°01' W 117°55'613.0
2018-Jun-12 21:31N 32°55' W 117°53'612.8
2018-Jun-12 21:00N 32°49' W 117°50'612.8
2018-Jun-12 20:30N 32°42' W 117°47'612.7
2018-Jun-12 20:00N 32°36' W 117°45'612.4
2018-Jun-12 19:30N 32°31' W 117°42'612.4
2018-Jun-12 19:00N 32°25' W 117°40'612.1
2018-Jun-12 18:30N 32°19' W 117°37'5912.6
2018-Jun-12 13:47N 31°23' W 117°14'412.8
2018-Jun-12 13:30N 31°19' W 117°12'26511.5
2018-Jun-11 14:26N 27°17' W 115°11'2711.4
2018-Jun-11 12:02N 26°54' W 114°53'  
Track history (hours):
 
Tides and Currents Weather Stations Pressure Air Temp Water Temp Dewpoint Dewpoint Depression Visibility Wind Speed Wind Dir Waves Ship Positions

Maratha Paramount

Last reported at 2018-Jun-14 23:14 UTC. Time now 2018-Jun-18 13:34 UTC.
Position N 34°28' W 123°51'.

Length 175 m; draft 9.7 m.

Type: Cargo ship. MMSI: 538003632.

Date/timePositionNaut miles runAvg speedWind from/ knotsBaromVisibWave heightAir tempDewpointWater temp
2018-Jun-14 23:14N 34°28' W 123°51'1710.3
2018-Jun-14 21:33N 34°27' W 123°29'310.4
2018-Jun-14 21:18N 34°27' W 123°26'410.5
2018-Jun-14 20:56N 34°27' W 123°22'610.5
2018-Jun-14 20:23N 34°27' W 123°15'410.7
2018-Jun-14 19:59N 34°27' W 123°09'510.3
2018-Jun-14 19:30N 34°27' W 123°03'510.4
2018-Jun-14 19:00N 34°27' W 122°57'510.3
2018-Jun-14 18:30N 34°27' W 122°51'610.3
2018-Jun-14 17:55N 34°27' W 122°43'1310.5
2018-Jun-14 16:39N 34°26' W 122°27'310.3
2018-Jun-14 16:24N 34°26' W 122°24'610.4
2018-Jun-14 15:49N 34°27' W 122°17'710.3
2018-Jun-14 15:06N 34°27' W 122°08'110.2
2018-Jun-14 15:00N 34°27' W 122°07'610.3
2018-Jun-14 14:23N 34°27' W 121°59'410.5
2018-Jun-14 14:00N 34°27' W 121°54'610.3
2018-Jun-14 13:28N 34°27' W 121°47'510.5
2018-Jun-14 13:00N 34°26' W 121°41'510.5
2018-Jun-14 12:29N 34°27' W 121°35'510.5
2018-Jun-14 12:00N 34°27' W 121°29'610.2
2018-Jun-14 11:26N 34°27' W 121°22'510.8
2018-Jun-14 11:00N 34°27' W 121°16'610.8
2018-Jun-14 10:29N 34°27' W 121°09'511.1
2018-Jun-14 10:00N 34°27' W 121°03'610.7
2018-Jun-14 09:28N 34°27' W 120°56'511.0
2018-Jun-14 09:00N 34°26' W 120°50'611.3
2018-Jun-14 08:30N 34°24' W 120°43'611.1
2018-Jun-14 08:00N 34°23' W 120°37'610.9
2018-Jun-14 07:30N 34°21' W 120°30'611.7
2018-Jun-14 07:00N 34°20' W 120°23'612.5
2018-Jun-14 06:30N 34°18' W 120°16'612.2
2018-Jun-14 06:00N 34°16' W 120°09'611.8
2018-Jun-14 05:28N 34°15' W 120°02'611.6
2018-Jun-14 04:58N 34°13' W 119°55'611.7
2018-Jun-14 04:28N 34°11' W 119°48'612.6
2018-Jun-14 03:58N 34°10' W 119°41'612.4
2018-Jun-14 03:30N 34°08' W 119°34'612.7
2018-Jun-14 03:00N 34°07' W 119°27'712.8
2018-Jun-14 02:28N 34°05' W 119°19'612.5
2018-Jun-14 02:00N 34°03' W 119°12'612.3
2018-Jun-14 01:30N 33°60' W 119°06'712.1
2018-Jun-14 00:58N 33°56' W 118°59'612.0
2018-Jun-14 00:29N 33°53' W 118°53'611.5
2018-Jun-13 23:59N 33°51' W 118°47'610.9
2018-Jun-13 23:28N 33°48' W 118°41'511.0
2018-Jun-13 23:00N 33°45' W 118°36'610.9
2018-Jun-13 22:27N 33°43' W 118°29'510.8
2018-Jun-13 22:00N 33°40' W 118°24'510.3
2018-Jun-13 21:30N 33°38' W 118°18'5 9.5
2018-Jun-13 21:01N 33°38' W 118°13'5 9.0
2018-Jun-13 20:30N 33°43' W 118°11'2 4.2
2018-Jun-13 20:01N 33°43' W 118°14'0 0.2
2018-Jun-13 19:30N 33°43' W 118°14'0 0.2
2018-Jun-13 19:00N 33°43' W 118°14'0 0.1
2018-Jun-13 18:30N 33°43' W 118°14'0 0.0
2018-Jun-13 18:00N 33°43' W 118°14'0 0.0
2018-Jun-13 17:30N 33°43' W 118°14'0 0.0
2018-Jun-13 17:00N 33°43' W 118°14'0 0.0
2018-Jun-13 16:30N 33°43' W 118°14'0 0.0
2018-Jun-13 16:00N 33°43' W 118°14'0 0.1
2018-Jun-13 15:30N 33°43' W 118°14'0 0.0
2018-Jun-13 15:00N 33°43' W 118°14'0 0.1
2018-Jun-13 14:30N 33°43' W 118°14'0 0.0
2018-Jun-13 14:00N 33°43' W 118°14'0 0.1
2018-Jun-13 13:30N 33°43' W 118°14'0 0.0
2018-Jun-13 13:00N 33°43' W 118°14'0 0.0
2018-Jun-13 12:30N 33°43' W 118°14'0 0.0
2018-Jun-13 12:00N 33°43' W 118°14'0 0.0
2018-Jun-13 11:27N 33°43' W 118°14'0 0.0
2018-Jun-13 11:00N 33°43' W 118°14'0 0.0
2018-Jun-13 10:30N 33°43' W 118°14'0 0.0
2018-Jun-13 10:00N 33°43' W 118°14'0 0.0
2018-Jun-13 09:30N 33°43' W 118°14'0 0.0
2018-Jun-13 09:00N 33°43' W 118°14'0 0.0
2018-Jun-13 08:27N 33°43' W 118°14'0 0.0
2018-Jun-13 08:00N 33°43' W 118°14'0 0.0
2018-Jun-13 07:30N 33°43' W 118°14'0 0.1
2018-Jun-13 06:51N 33°43' W 118°14'0 0.0
2018-Jun-13 06:24N 33°43' W 118°14'0 0.0
2018-Jun-13 06:00N 33°43' W 118°14'0 0.0
2018-Jun-13 05:30N 33°43' W 118°14'0 0.0
2018-Jun-13 05:00N 33°43' W 118°14'0 0.0
2018-Jun-13 04:30N 33°43' W 118°14'0 0.0
2018-Jun-13 04:00N 33°43' W 118°14'0 0.0
2018-Jun-13 03:30N 33°43' W 118°14'0 0.1
2018-Jun-13 03:00N 33°43' W 118°14'1 2.2
2018-Jun-13 02:30N 33°44' W 118°12'4 7.4
2018-Jun-13 02:00N 33°40' W 118°11'4 7.9
2018-Jun-13 01:30N 33°36' W 118°10'5 9.7
2018-Jun-13 01:00N 33°32' W 118°08'510.0
2018-Jun-13 00:30N 33°27' W 118°06'4 7.3
2018-Jun-12 23:59N 33°23' W 118°04'510.4
2018-Jun-12 23:30N 33°19' W 118°02'612.2
2018-Jun-12 23:00N 33°13' W 117°60'712.8
2018-Jun-12 22:29N 33°06' W 117°57'613.0
2018-Jun-12 22:00N 33°01' W 117°55'613.0
2018-Jun-12 21:31N 32°55' W 117°53'612.8
2018-Jun-12 21:00N 32°49' W 117°50'612.8
2018-Jun-12 20:30N 32°42' W 117°47'612.7
2018-Jun-12 20:00N 32°36' W 117°45'612.4
2018-Jun-12 19:30N 32°31' W 117°42'612.4
2018-Jun-12 19:00N 32°25' W 117°40'612.1
2018-Jun-12 18:30N 32°19' W 117°37'5912.6
2018-Jun-12 13:47N 31°23' W 117°14'412.8
2018-Jun-12 13:30N 31°19' W 117°12'26511.5
2018-Jun-11 14:26N 27°17' W 115°11'2711.4
2018-Jun-11 12:02N 26°54' W 114°53'  

Dump ship's entire track history